Terminal Aerodrome Forecast
Issued by NWS Charleston, WV

Current Version | Previous Version | Graphics & Text | Print | Product List | Glossary On
Versions: 1 2 3 4 5 6 7 8 9 10 11 12 13 14 15 16 17 18 19 20 21 22
184
FTUS41 KRLX 112320
TAFPKB
TAF
KPKB 112320Z 1200/1224 29004KT P6SM SCT250
     FM121200 VRB02KT P6SM BKN050
     FM121700 23005KT 3SM -SN OVC025
     FM122200 26008KT P6SM OVC035=

USA.gov is the U.S. government's official web portal to all federal, state and local government web resources and services.